Time;durP1;ratioP1;P1;durP2;ratioP2;P2;SDS_P1;SDS_P2;PMS_P1;PMS_P2;Temp;Humidity;BMP_temperature;BMP_pressure;BME280_temperature;BME280_humidity;BME280_pressure;Samples;Min_cycle;Max_cycle;Signal;HPM_P1;HPM_P2
2023/04/27 00:01:48;;;;;;;11.15;6.57;;;;;;;1.75;100.00;98789.75;4196175;28;20354;-70
2023/04/27 00:03:49;;;;;;;10.02;6.30;;;;;;;1.72;100.00;98786.84;4199604;28;20162;-70
2023/04/27 00:05:50;;;;;;;10.82;6.32;;;;;;;1.68;100.00;98775.75;4194050;28;20396;-70
2023/04/27 00:07:50;;;;;;;9.15;5.88;;;;;;;1.60;100.00;98782.75;4198532;28;20036;-70
2023/04/27 00:09:51;;;;;;;10.77;6.43;;;;;;;1.55;100.00;98785.59;4202285;28;20111;-70
2023/04/27 00:11:51;;;;;;;9.10;6.03;;;;;;;1.60;100.00;98780.03;4203143;28;20130;-70
2023/04/27 00:13:51;;;;;;;8.80;5.53;;;;;;;1.60;100.00;98776.50;4197864;28;20040;-70
2023/04/27 00:15:52;;;;;;;9.68;5.50;;;;;;;1.71;100.00;98775.13;4203841;28;20036;-70
2023/04/27 00:17:52;;;;;;;9.25;5.43;;;;;;;1.78;100.00;98777.41;4201063;28;20088;-70
2023/04/27 00:19:53;;;;;;;7.65;5.57;;;;;;;1.74;100.00;98776.41;4198172;28;20120;-70
2023/04/27 00:21:53;;;;;;;11.70;5.82;;;;;;;1.73;100.00;98767.41;4195827;28;20043;-70
2023/04/27 00:23:54;;;;;;;10.85;5.57;;;;;;;1.78;100.00;98782.84;4198857;28;20126;-70
2023/04/27 00:25:54;;;;;;;8.52;5.47;;;;;;;1.81;100.00;98779.50;4194394;28;20140;-70
2023/04/27 00:27:54;;;;;;;8.18;4.63;;;;;;;1.81;100.00;98774.03;4202297;28;20623;-70
2023/04/27 00:29:55;;;;;;;9.50;6.03;;;;;;;1.89;100.00;98765.09;4202451;28;20059;-70
2023/04/27 00:31:55;;;;;;;9.02;5.00;;;;;;;1.96;100.00;98771.72;4201171;28;20425;-70
2023/04/27 00:33:55;;;;;;;10.88;5.30;;;;;;;2.00;100.00;98769.19;4199485;28;20449;-70
2023/04/27 00:36:00;;;;;;;9.50;6.45;;;;;;;2.06;100.00;98769.81;4204283;28;20131;-70
2023/04/27 00:38:00;;;;;;;7.70;5.20;;;;;;;2.12;100.00;98771.31;4202067;28;20040;-70
2023/04/27 00:40:05;;;;;;;8.85;5.13;;;;;;;2.16;100.00;98780.47;4197798;28;20044;-71
2023/04/27 00:42:10;;;;;;;11.10;5.45;;;;;;;2.13;100.00;98773.72;4199281;28;20086;-70
2023/04/27 00:44:10;;;;;;;9.30;5.50;;;;;;;2.12;100.00;98777.56;4198785;28;20020;-70
2023/04/27 00:46:12;;;;;;;7.57;5.30;;;;;;;2.08;100.00;98773.88;4199588;28;20043;-70
2023/04/27 00:48:12;;;;;;;9.25;5.25;;;;;;;2.01;100.00;98770.78;4197477;28;20020;-70
2023/04/27 00:50:13;;;;;;;7.40;4.82;;;;;;;1.95;100.00;98774.75;4202013;28;20070;-70
2023/04/27 00:52:14;;;;;;;7.20;4.43;;;;;;;1.95;100.00;98770.09;4195983;27;20502;-70
2023/04/27 00:54:17;;;;;;;6.28;4.55;;;;;;;1.91;100.00;98771.88;4199886;27;20361;-70
2023/04/27 00:56:18;;;;;;;7.15;4.47;;;;;;;1.85;100.00;98780.50;4194701;27;20479;-70
2023/04/27 00:58:18;;;;;;;9.52;4.75;;;;;;;1.85;100.00;98764.94;4199004;28;20032;-70
2023/04/27 01:00:19;;;;;;;7.07;4.28;;;;;;;1.83;100.00;98771.81;4198733;27;20433;-70
2023/04/27 01:02:19;;;;;;;6.88;4.13;;;;;;;1.80;100.00;98775.16;4194564;28;20419;-70
2023/04/27 01:04:20;;;;;;;10.07;4.65;;;;;;;1.79;100.00;98770.81;4195903;28;20341;-70
2023/04/27 01:06:20;;;;;;;7.80;4.97;;;;;;;1.77;100.00;98773.06;4199659;27;20016;-70
2023/04/27 01:08:21;;;;;;;9.48;4.90;;;;;;;1.73;100.00;98772.06;4200527;28;20049;-70
2023/04/27 01:10:21;;;;;;;10.10;4.88;;;;;;;1.66;100.00;98778.78;4196217;28;20048;-70
2023/04/27 01:12:21;;;;;;;6.85;4.82;;;;;;;1.59;100.00;98766.72;4198467;28;20032;-70
2023/04/27 01:14:22;;;;;;;8.25;4.43;;;;;;;1.60;100.00;98777.31;4201377;28;20051;-70
2023/04/27 01:16:22;;;;;;;9.50;4.72;;;;;;;1.60;100.00;98763.66;4202468;28;20384;-70
2023/04/27 01:18:23;;;;;;;7.18;4.57;;;;;;;1.63;100.00;98770.41;4201231;28;20460;-70
2023/04/27 01:20:23;;;;;;;8.05;4.63;;;;;;;1.61;100.00;98764.47;4197187;28;20047;-70
2023/04/27 01:22:24;;;;;;;7.43;4.25;;;;;;;1.61;100.00;98765.28;4199754;28;20044;-70
2023/04/27 01:24:25;;;;;;;10.05;5.10;;;;;;;1.56;100.00;98761.88;4198218;28;20605;-70
2023/04/27 01:26:25;;;;;;;7.38;5.40;;;;;;;1.54;100.00;98762.19;4199352;28;20043;-70
2023/04/27 01:28:26;;;;;;;13.27;4.97;;;;;;;1.53;100.00;98766.03;4198505;28;20044;-70
2023/04/27 01:30:27;;;;;;;7.80;4.80;;;;;;;1.49;100.00;98759.59;4195904;27;20052;-70
2023/04/27 01:32:27;;;;;;;9.82;5.30;;;;;;;1.46;100.00;98767.59;4197088;28;20044;-70
2023/04/27 01:34:29;;;;;;;7.18;4.65;;;;;;;1.43;100.00;98770.94;4200605;27;20170;-70
2023/04/27 01:36:31;;;;;;;6.35;4.22;;;;;;;1.43;100.00;98770.94;4198247;27;20064;-70
2023/04/27 01:38:32;;;;;;;10.38;5.28;;;;;;;1.41;100.00;98768.53;4201423;28;21094;-70
2023/04/27 01:40:32;;;;;;;10.00;5.20;;;;;;;1.44;100.00;98773.34;4193223;28;20075;-69
2023/04/27 01:42:33;;;;;;;5.85;4.53;;;;;;;1.45;100.00;98774.97;4198151;28;20062;-70
2023/04/27 01:44:33;;;;;;;9.30;4.82;;;;;;;1.48;100.00;98774.31;4202024;28;20165;-70
2023/04/27 01:46:33;;;;;;;8.25;5.13;;;;;;;1.54;100.00;98775.81;4199956;27;20174;-70
2023/04/27 01:48:34;;;;;;;7.78;4.57;;;;;;;1.58;100.00;98770.56;4201592;27;20047;-70
2023/04/27 01:50:35;;;;;;;9.88;5.18;;;;;;;1.62;100.00;98779.72;4197734;28;20045;-70
2023/04/27 01:52:35;;;;;;;8.25;4.90;;;;;;;1.68;100.00;98781.22;4198644;28;20518;-70
2023/04/27 01:54:35;;;;;;;10.55;4.90;;;;;;;1.73;100.00;98777.53;4196261;28;20325;-70
2023/04/27 01:56:36;;;;;;;8.68;5.63;;;;;;;1.78;100.00;98777.41;4199968;28;20048;-70
2023/04/27 01:58:36;;;;;;;10.13;5.03;;;;;;;1.77;100.00;98775.78;4198310;28;20069;-70
2023/04/27 02:00:37;;;;;;;9.82;5.13;;;;;;;1.75;100.00;98784.31;4197706;28;20036;-70
2023/04/27 02:02:37;;;;;;;10.02;5.07;;;;;;;1.73;100.00;98789.25;4197298;28;20036;-70
2023/04/27 02:04:37;;;;;;;8.02;4.93;;;;;;;1.69;100.00;98791.78;4196807;28;20047;-70
2023/04/27 02:06:38;;;;;;;9.15;5.05;;;;;;;1.67;100.00;98791.31;4199256;28;20072;-70
2023/04/27 02:08:38;;;;;;;9.13;4.60;;;;;;;1.65;100.00;98792.72;4197774;28;20063;-70
2023/04/27 02:10:38;;;;;;;8.52;5.20;;;;;;;1.66;100.00;98794.34;4198733;28;20442;-70
2023/04/27 02:12:39;;;;;;;8.00;4.68;;;;;;;1.67;100.00;98791.31;4197207;28;20036;-70
2023/04/27 02:14:39;;;;;;;8.77;5.28;;;;;;;1.69;100.00;98791.00;4193848;28;20131;-70
2023/04/27 02:16:39;;;;;;;9.05;5.18;;;;;;;1.73;100.00;98793.88;4204353;28;20040;-70
2023/04/27 02:18:40;;;;;;;9.57;5.07;;;;;;;1.77;100.00;98794.91;4201398;28;20091;-70
2023/04/27 02:20:41;;;;;;;9.10;5.53;;;;;;;1.74;100.00;98793.59;4202344;28;20076;-70
2023/04/27 02:22:42;;;;;;;8.00;4.47;;;;;;;1.72;100.00;98797.75;4200257;28;20055;-70
2023/04/27 02:24:42;;;;;;;9.02;5.10;;;;;;;1.67;100.00;98801.41;4201817;28;20045;-70
2023/04/27 02:26:43;;;;;;;9.05;5.50;;;;;;;1.63;100.00;98801.22;4205641;28;20354;-70
2023/04/27 02:28:45;;;;;;;10.43;5.50;;;;;;;1.64;100.00;98810.22;4198828;28;20044;-70
2023/04/27 02:30:46;;;;;;;7.22;4.90;;;;;;;1.62;100.00;98805.06;4203864;27;20127;-70
2023/04/27 02:32:46;;;;;;;10.45;5.85;;;;;;;1.61;100.00;98808.91;4197464;28;20445;-70
2023/04/27 02:34:47;;;;;;;8.88;5.20;;;;;;;1.59;100.00;98810.34;4198317;28;20404;-70
2023/04/27 02:36:47;;;;;;;8.35;5.60;;;;;;;1.56;100.00;98817.22;4206897;27;20052;-70
2023/04/27 02:38:48;;;;;;;8.55;5.43;;;;;;;1.58;100.00;98815.00;4198542;28;20396;-70
2023/04/27 02:40:53;;;;;;;12.73;5.72;;;;;;;1.62;100.00;98826.09;4204994;28;20090;-70
2023/04/27 02:42:53;;;;;;;8.57;5.28;;;;;;;1.64;100.00;98830.09;4197146;28;20364;-70
2023/04/27 02:44:54;;;;;;;8.07;5.38;;;;;;;1.63;100.00;98814.06;4202588;27;20126;-70
2023/04/27 02:46:54;;;;;;;6.40;4.68;;;;;;;1.60;100.00;98829.13;4203780;28;20061;-70
2023/04/27 02:48:55;;;;;;;9.00;5.78;;;;;;;1.61;100.00;98824.47;4199349;28;20060;-70
2023/04/27 02:50:56;;;;;;;9.27;5.13;;;;;;;1.62;100.00;98823.34;4201418;28;20484;-70
2023/04/27 02:52:56;;;;;;;10.55;5.25;;;;;;;1.59;100.00;98829.44;4201794;28;20048;-70
2023/04/27 02:54:56;;;;;;;9.05;5.30;;;;;;;1.55;100.00;98829.25;4193854;28;20617;-70
2023/04/27 02:56:57;;;;;;;9.48;5.70;;;;;;;1.49;100.00;98822.31;4201980;27;20164;-70
2023/04/27 02:58:57;;;;;;;9.13;5.03;;;;;;;1.49;100.00;98833.22;4197704;28;20361;-70
2023/04/27 03:00:57;;;;;;;8.88;5.95;;;;;;;1.48;100.00;98831.59;4202805;27;20044;-70
2023/04/27 03:02:58;;;;;;;8.55;5.80;;;;;;;1.48;100.00;98830.78;4198992;28;20447;-70
2023/04/27 03:04:58;;;;;;;9.30;6.20;;;;;;;1.46;100.00;98836.56;4204635;27;20562;-70
2023/04/27 03:06:58;;;;;;;9.38;5.00;;;;;;;1.47;100.00;98840.88;4196780;28;20086;-70
2023/04/27 03:08:59;;;;;;;9.93;5.28;;;;;;;1.47;100.00;98840.09;4198392;28;20060;-70
2023/04/27 03:10:59;;;;;;;7.55;5.00;;;;;;;1.49;100.00;98844.13;4200869;28;20048;-70
2023/04/27 03:12:59;;;;;;;9.60;5.50;;;;;;;1.49;100.00;98838.69;4201451;28;20087;-70
2023/04/27 03:15:00;;;;;;;6.85;4.93;;;;;;;1.50;100.00;98843.03;4201837;28;20133;-70
2023/04/27 03:17:02;;;;;;;7.40;4.93;;;;;;;1.51;100.00;98850.06;4203113;28;20228;-70
2023/04/27 03:19:02;;;;;;;7.67;5.17;;;;;;;1.48;100.00;98830.78;4201380;28;20047;-70
2023/04/27 03:21:10;;;;;;;9.25;5.35;;;;;;;1.50;100.00;98843.03;4200536;28;20295;-70
2023/04/27 03:23:10;;;;;;;8.40;5.07;;;;;;;1.53;100.00;98842.38;4199091;27;20083;-70
2023/04/27 03:25:11;;;;;;;7.38;4.80;;;;;;;1.57;100.00;98845.28;4201353;28;20067;-70
2023/04/27 03:27:11;;;;;;;8.55;5.35;;;;;;;1.62;100.00;98842.44;4202447;27;20040;-70
2023/04/27 03:29:11;;;;;;;10.27;5.82;;;;;;;1.62;100.00;98839.72;4197910;28;20048;-70
2023/04/27 03:31:13;;;;;;;9.15;5.57;;;;;;;1.63;100.00;98857.69;4196800;28;20055;-70
2023/04/27 03:33:14;;;;;;;8.27;5.10;;;;;;;1.68;100.00;98852.13;4200241;27;20113;-70
2023/04/27 03:35:14;;;;;;;7.35;5.07;;;;;;;1.66;100.00;98844.25;4200709;27;20094;-70
2023/04/27 03:37:15;;;;;;;10.57;5.50;;;;;;;1.68;100.00;98846.66;4199214;28;20205;-70
2023/04/27 03:39:15;;;;;;;10.52;5.22;;;;;;;1.70;100.00;98852.63;4198362;27;20481;-70
2023/04/27 03:41:15;;;;;;;10.02;6.32;;;;;;;1.68;100.00;98858.38;4202531;27;20043;-70
2023/04/27 03:43:17;;;;;;;10.98;6.07;;;;;;;1.71;100.00;98859.69;4197765;28;20135;-70
2023/04/27 03:45:18;;;;;;;10.32;5.43;;;;;;;1.78;100.00;98861.97;4197363;27;20457;-70
2023/04/27 03:47:18;;;;;;;9.40;5.25;;;;;;;1.83;100.00;98849.03;4198139;28;20049;-70
2023/04/27 03:49:18;;;;;;;8.65;5.07;;;;;;;1.85;100.00;98852.25;4197456;28;20032;-70
2023/04/27 03:51:19;;;;;;;8.93;5.70;;;;;;;1.92;100.00;98852.59;4200369;28;20043;-70
2023/04/27 03:53:19;;;;;;;10.25;5.80;;;;;;;1.92;100.00;98851.81;4200891;27;20044;-70
2023/04/27 03:55:19;;;;;;;11.52;5.72;;;;;;;1.95;100.00;98862.09;4200276;27;20044;-70
2023/04/27 03:57:20;;;;;;;8.95;5.00;;;;;;;1.94;100.00;98855.03;4196473;28;20094;-70
2023/04/27 03:59:20;;;;;;;9.10;5.72;;;;;;;1.97;100.00;98854.38;4197627;28;20514;-70
2023/04/27 04:01:21;;;;;;;9.88;4.88;;;;;;;1.98;100.00;98870.44;4196455;28;20397;-70
2023/04/27 04:03:21;;;;;;;11.02;4.90;;;;;;;1.94;100.00;98861.28;4196624;28;20029;-70
2023/04/27 04:05:21;;;;;;;9.00;5.30;;;;;;;1.90;100.00;98854.84;4196919;28;20598;-70
2023/04/27 04:07:22;;;;;;;7.65;5.68;;;;;;;1.93;100.00;98848.75;4195000;28;20044;-70
2023/04/27 04:09:22;;;;;;;11.55;5.85;;;;;;;1.94;100.00;98844.91;4199933;27;20040;-70
2023/04/27 04:11:22;;;;;;;11.15;6.65;;;;;;;1.96;100.00;98841.88;4198524;28;20039;-70
2023/04/27 04:13:22;;;;;;;9.45;5.68;;;;;;;1.97;100.00;98843.47;4197379;27;20040;-70
2023/04/27 04:15:23;;;;;;;9.05;5.22;;;;;;;2.02;100.00;98846.06;4197572;28;20071;-70
2023/04/27 04:17:23;;;;;;;10.80;6.47;;;;;;;2.02;100.00;98854.25;4198958;28;20093;-71
2023/04/27 04:19:23;;;;;;;8.55;5.68;;;;;;;2.01;100.00;98858.13;4196107;28;20445;-70
2023/04/27 04:21:24;;;;;;;11.50;5.75;;;;;;;1.98;100.00;98856.78;4197493;28;20056;-70
2023/04/27 04:23:25;;;;;;;10.52;5.97;;;;;;;2.02;100.00;98861.66;4194676;28;20044;-70
2023/04/27 04:25:27;;;;;;;8.82;5.63;;;;;;;2.01;100.00;98854.59;4198091;28;20043;-70
2023/04/27 04:27:27;;;;;;;11.82;6.65;;;;;;;2.00;100.00;98845.59;4196928;28;20451;-70
2023/04/27 04:29:27;;;;;;;14.20;6.72;;;;;;;2.02;100.00;98854.25;4194334;28;20087;-70
2023/04/27 04:31:28;;;;;;;10.68;6.40;;;;;;;2.04;100.00;98846.56;4195081;28;20123;-70
2023/04/27 04:33:28;;;;;;;12.27;6.10;;;;;;;2.03;100.00;98858.59;4196719;28;20097;-70
2023/04/27 04:35:29;;;;;;;8.27;6.13;;;;;;;2.02;100.00;98859.72;4196601;28;20090;-71
2023/04/27 04:37:31;;;;;;;9.93;6.20;;;;;;;2.02;100.00;98861.66;4197335;28;20048;-70
2023/04/27 04:39:32;;;;;;;12.32;7.15;;;;;;;2.01;100.00;98860.84;4196552;28;20457;-71
2023/04/27 04:41:32;;;;;;;16.13;7.15;;;;;;;2.01;100.00;98854.59;4197267;28;20051;-70
2023/04/27 04:43:32;;;;;;;10.98;6.68;;;;;;;2.04;100.00;98860.22;4197092;28;20051;-71
2023/04/27 04:45:34;;;;;;;12.27;7.07;;;;;;;2.14;100.00;98865.41;4196615;28;20044;-71
2023/04/27 04:47:35;;;;;;;10.27;6.73;;;;;;;2.17;100.00;98859.34;4196010;27;20465;-71
2023/04/27 04:49:35;;;;;;;12.32;6.57;;;;;;;2.25;100.00;98852.31;4203943;27;20024;-71
2023/04/27 04:51:36;;;;;;;12.88;6.75;;;;;;;2.30;100.00;98843.97;4198204;27;20037;-71
2023/04/27 04:53:36;;;;;;;10.63;6.45;;;;;;;2.34;100.00;98846.88;4198184;27;20392;-71
2023/04/27 04:55:37;;;;;;;8.93;6.10;;;;;;;2.38;100.00;98851.38;4197586;28;20040;-71
2023/04/27 04:57:37;;;;;;;12.88;6.20;;;;;;;2.38;100.00;98858.78;4198104;28;20384;-71
2023/04/27 04:59:37;;;;;;;10.27;6.00;;;;;;;2.38;100.00;98850.56;4198036;27;20494;-70
2023/04/27 05:01:38;;;;;;;10.82;5.95;;;;;;;2.40;100.00;98861.97;4198119;27;20227;-71
2023/04/27 05:03:38;;;;;;;8.95;5.93;;;;;;;2.42;100.00;98859.75;4203706;27;20082;-71
2023/04/27 05:05:38;;;;;;;12.00;6.20;;;;;;;2.44;100.00;98855.59;4199981;27;20553;-71
2023/04/27 05:07:39;;;;;;;8.73;5.78;;;;;;;2.50;100.00;98857.06;4180595;27;20037;-71
2023/04/27 05:09:40;;;;;;;12.32;5.60;;;;;;;2.53;100.00;98853.69;4181565;28;20064;-71
2023/04/27 05:11:40;;;;;;;11.05;5.65;;;;;;;2.55;100.00;98845.19;4199188;27;20156;-71
2023/04/27 05:13:40;;;;;;;14.05;5.90;;;;;;;2.61;100.00;98843.13;4198522;28;20028;-71
2023/04/27 05:15:40;;;;;;;11.05;5.93;;;;;;;2.66;100.00;98845.72;4196175;28;20055;-70
2023/04/27 05:17:41;;;;;;;10.93;5.57;;;;;;;2.69;100.00;98834.16;4197082;28;20051;-70
2023/04/27 05:19:41;;;;;;;10.80;5.55;;;;;;;2.74;100.00;98842.19;4198436;28;20484;-70
2023/04/27 05:21:41;;;;;;;10.75;5.22;;;;;;;2.73;100.00;98846.03;4198486;28;20052;-70
2023/04/27 05:23:42;;;;;;;11.38;5.30;;;;;;;2.72;100.00;98869.03;4197212;28;20040;-71
2023/04/27 05:25:42;;;;;;;11.38;6.53;;;;;;;2.65;100.00;98871.41;4199875;28;20194;-70
2023/04/27 05:27:43;;;;;;;9.10;5.97;;;;;;;2.64;100.00;98881.53;4192617;28;20040;-71
2023/04/27 05:29:43;;;;;;;10.60;6.40;;;;;;;2.61;100.00;98879.44;4194771;28;20527;-71
2023/04/27 05:31:43;;;;;;;10.75;5.53;;;;;;;2.62;100.00;98867.38;4200407;28;20603;-71
2023/04/27 05:33:43;;;;;;;12.30;5.45;;;;;;;2.65;100.00;98876.88;4199054;28;20149;-71
2023/04/27 05:35:44;;;;;;;14.27;6.35;;;;;;;2.64;100.00;98872.53;4200066;28;20113;-71
2023/04/27 05:37:44;;;;;;;10.43;6.32;;;;;;;2.59;100.00;98878.16;4203512;28;20060;-70
2023/04/27 05:39:44;;;;;;;15.77;7.25;;;;;;;2.59;100.00;98878.94;4200620;28;20079;-70
2023/04/27 05:41:45;;;;;;;9.75;7.25;;;;;;;2.65;100.00;98874.13;4195553;28;20139;-70
2023/04/27 05:43:45;;;;;;;15.43;10.57;;;;;;;2.73;100.00;98878.81;4194300;28;20136;-70
2023/04/27 05:45:46;;;;;;;21.45;12.82;;;;;;;2.87;100.00;98881.44;4199401;28;20040;-70
2023/04/27 05:47:46;;;;;;;18.52;12.65;;;;;;;2.98;100.00;98880.00;4198823;28;20071;-70
2023/04/27 05:49:52;;;;;;;16.05;10.40;;;;;;;3.15;100.00;98880.09;4198360;28;20125;-70
2023/04/27 05:51:53;;;;;;;13.55;9.20;;;;;;;3.28;100.00;98879.13;4197781;28;20047;-70
2023/04/27 05:53:54;;;;;;;12.02;6.20;;;;;;;3.42;100.00;98878.19;4199194;28;20381;-70
2023/04/27 05:55:55;;;;;;;12.48;5.80;;;;;;;3.47;100.00;98886.19;4197727;28;20364;-70
2023/04/27 05:57:56;;;;;;;8.57;5.75;;;;;;;3.48;100.00;98890.56;4195302;28;20334;-70
2023/04/27 05:59:56;;;;;;;9.10;5.80;;;;;;;3.47;100.00;98897.16;4199180;28;20673;-70
2023/04/27 06:01:57;;;;;;;8.43;5.60;;;;;;;3.47;100.00;98899.88;4196845;28;20048;-70
2023/04/27 06:04:00;;;;;;;8.30;5.50;;;;;;;3.51;100.00;98898.13;4195782;28;20822;-70
2023/04/27 06:06:01;;;;;;;8.90;5.38;;;;;;;3.57;100.00;98902.31;4199525;28;20048;-70
2023/04/27 06:08:01;;;;;;;9.95;6.07;;;;;;;3.62;100.00;98899.41;4198472;28;20048;-70
2023/04/27 06:10:02;;;;;;;9.60;6.15;;;;;;;3.67;100.00;98894.59;4197133;28;20085;-70
2023/04/27 06:12:04;;;;;;;8.25;5.93;;;;;;;3.73;100.00;98903.44;4194869;28;20033;-70
2023/04/27 06:14:04;;;;;;;11.27;5.38;;;;;;;3.81;100.00;98905.38;4194130;28;20038;-70
2023/04/27 06:16:04;;;;;;;7.20;5.05;;;;;;;3.81;100.00;98894.44;4196170;28;20407;-70
2023/04/27 06:18:05;;;;;;;8.63;5.10;;;;;;;3.87;100.00;98898.59;4199702;28;20206;-70
2023/04/27 06:20:06;;;;;;;7.20;5.07;;;;;;;3.94;100.00;98898.09;4199657;28;20024;-71
2023/04/27 06:22:06;;;;;;;8.52;4.43;;;;;;;4.00;100.00;98905.03;4195820;28;20037;-71
2023/04/27 06:24:07;;;;;;;10.90;5.25;;;;;;;4.10;100.00;98901.94;4197203;28;20430;-71
2023/04/27 06:26:07;;;;;;;9.00;5.05;;;;;;;4.20;100.00;98904.34;4199013;28;20024;-71
2023/04/27 06:28:07;;;;;;;11.77;5.35;;;;;;;4.37;100.00;98908.97;4196072;28;20060;-71
2023/04/27 06:30:08;;;;;;;8.80;4.85;;;;;;;4.53;100.00;98900.22;4201216;28;20036;-71
2023/04/27 06:32:08;;;;;;;7.40;5.18;;;;;;;4.57;100.00;98895.72;4199740;28;20035;-71
2023/04/27 06:34:09;;;;;;;12.45;6.10;;;;;;;4.68;100.00;98889.53;4196347;28;20027;-71
2023/04/27 06:36:09;;;;;;;9.27;5.22;;;;;;;4.71;100.00;98888.06;4194881;28;20551;-71
2023/04/27 06:38:09;;;;;;;8.68;5.00;;;;;;;4.73;100.00;98896.78;4198401;28;20707;-71
2023/04/27 06:40:10;;;;;;;8.88;4.57;;;;;;;4.74;100.00;98892.91;4196905;28;20027;-71
2023/04/27 06:42:11;;;;;;;8.50;4.20;;;;;;;4.85;99.00;98896.06;4195667;28;20035;-71
2023/04/27 06:44:11;;;;;;;6.75;4.78;;;;;;;5.01;98.92;98899.84;4199290;28;20111;-71
2023/04/27 06:46:11;;;;;;;7.93;4.35;;;;;;;5.16;98.88;98913.00;4199201;28;20032;-71
2023/04/27 06:48:12;;;;;;;7.28;5.03;;;;;;;5.26;99.80;98914.56;4196546;28;20031;-71
2023/04/27 06:50:13;;;;;;;7.28;4.70;;;;;;;5.30;100.00;98910.03;4196766;28;20024;-71
2023/04/27 06:52:13;;;;;;;9.02;4.97;;;;;;;5.34;99.55;98909.00;4194077;28;20701;-71
2023/04/27 06:54:13;;;;;;;8.48;4.82;;;;;;;5.38;99.44;98908.34;4200296;28;20338;-71
2023/04/27 06:56:14;;;;;;;8.07;5.28;;;;;;;5.43;98.36;98905.41;4197275;28;20024;-71
2023/04/27 06:58:14;;;;;;;10.02;5.30;;;;;;;5.46;94.96;98907.47;4198547;28;20192;-71
2023/04/27 07:00:15;;;;;;;10.60;5.40;;;;;;;5.51;97.14;98897.13;4192550;28;20109;-71
2023/04/27 07:02:15;;;;;;;5.60;4.47;;;;;;;5.57;96.26;98908.72;4195352;28;20028;-71
2023/04/27 07:04:16;;;;;;;7.90;5.28;;;;;;;5.57;96.94;98906.75;4199873;28;20025;-71
2023/04/27 07:06:16;;;;;;;7.22;4.38;;;;;;;5.58;95.19;98908.38;4202336;28;20372;-71
2023/04/27 07:08:16;;;;;;;9.65;5.20;;;;;;;5.70;92.83;98906.81;4200833;28;20031;-71
2023/04/27 07:10:17;;;;;;;9.32;4.93;;;;;;;5.90;93.19;98904.09;4201780;28;20038;-71
2023/04/27 07:12:17;;;;;;;9.68;4.90;;;;;;;6.01;90.81;98906.44;4201236;28;20043;-71
2023/04/27 07:14:18;;;;;;;10.05;4.43;;;;;;;6.18;88.78;98911.75;4201632;28;20036;-71
2023/04/27 07:16:18;;;;;;;7.40;4.25;;;;;;;6.26;87.14;98904.56;4196120;28;20028;-71
2023/04/27 07:18:18;;;;;;;6.13;4.07;;;;;;;6.28;88.83;98921.50;4201052;28;20040;-71
2023/04/27 07:20:19;;;;;;;6.82;3.83;;;;;;;6.27;87.07;98922.66;4201691;28;20786;-71
2023/04/27 07:22:20;;;;;;;6.55;4.10;;;;;;;6.25;88.35;98919.44;4200270;28;20021;-71
2023/04/27 07:24:20;;;;;;;6.35;4.40;;;;;;;6.16;89.59;98925.84;4201493;28;20036;-71
2023/04/27 07:26:23;;;;;;;8.57;4.00;;;;;;;6.02;88.90;98919.00;4200995;28;20538;-71
2023/04/27 07:28:24;;;;;;;7.93;4.32;;;;;;;5.93;89.75;98912.81;4196570;28;20036;-71
2023/04/27 07:30:24;;;;;;;5.90;4.38;;;;;;;5.94;88.75;98911.66;4201237;28;20047;-71
2023/04/27 07:32:25;;;;;;;8.90;4.47;;;;;;;6.05;89.34;98916.41;4200261;28;20307;-71
2023/04/27 07:34:25;;;;;;;6.38;3.90;;;;;;;6.11;88.86;98920.53;4201262;28;20068;-71
2023/04/27 07:36:26;;;;;;;7.32;4.10;;;;;;;6.19;88.77;98916.91;4199514;28;20086;-71
2023/04/27 07:38:28;;;;;;;8.85;4.53;;;;;;;6.26;89.71;98916.34;4200617;28;20267;-71
2023/04/27 07:40:31;;;;;;;7.28;4.65;;;;;;;6.33;88.66;98908.38;4200335;28;20807;-71
2023/04/27 07:42:31;;;;;;;10.15;4.68;;;;;;;6.36;89.26;98904.94;4197411;28;20131;-71
2023/04/27 07:44:31;;;;;;;10.73;4.90;;;;;;;6.44;90.92;98911.47;4200951;28;20086;-71
2023/04/27 07:46:32;;;;;;;8.20;4.95;;;;;;;6.45;90.09;98913.91;4191987;28;20124;-71
2023/04/27 07:48:32;;;;;;;7.20;4.30;;;;;;;6.57;89.21;98917.81;4202717;28;20040;-71
2023/04/27 07:50:33;;;;;;;7.35;4.22;;;;;;;6.64;85.82;98913.38;4202613;28;20043;-71
2023/04/27 07:52:33;;;;;;;6.75;4.07;;;;;;;6.69;83.99;98918.63;4200564;28;20040;-70
2023/04/27 07:54:33;;;;;;;7.40;4.43;;;;;;;6.67;85.09;98909.13;4199033;28;20040;-71
2023/04/27 07:56:34;;;;;;;7.60;4.00;;;;;;;6.69;83.45;98915.88;4197646;28;20523;-71
2023/04/27 07:58:36;;;;;;;7.70;3.90;;;;;;;6.74;83.49;98923.13;4202036;28;20044;-71
2023/04/27 08:00:37;;;;;;;9.98;4.45;;;;;;;6.74;85.70;98920.38;4201580;28;20496;-71
2023/04/27 08:02:37;;;;;;;7.38;4.43;;;;;;;6.83;82.79;98926.56;4202203;28;20037;-71
2023/04/27 08:04:37;;;;;;;8.85;4.70;;;;;;;6.85;82.80;98921.53;4198376;28;20048;-71
2023/04/27 08:06:38;;;;;;;8.43;4.47;;;;;;;6.83;81.73;98923.81;4199831;28;20066;-71
2023/04/27 08:08:38;;;;;;;7.43;4.70;;;;;;;6.87;81.16;98916.50;4198671;28;20028;-71
2023/04/27 08:10:38;;;;;;;6.93;4.20;;;;;;;6.97;82.97;98918.00;4201184;28;20040;-71
2023/04/27 08:12:39;;;;;;;7.90;3.75;;;;;;;7.07;82.77;98920.28;4199330;28;20028;-71
2023/04/27 08:14:39;;;;;;;7.18;4.32;;;;;;;7.07;78.88;98925.78;4199646;28;20105;-71
2023/04/27 08:16:41;;;;;;;7.90;4.22;;;;;;;7.13;80.39;98918.91;4199957;28;20773;-71
2023/04/27 08:18:42;;;;;;;6.18;4.20;;;;;;;7.17;81.58;98919.81;4199752;28;20044;-71
2023/04/27 08:20:43;;;;;;;8.37;4.60;;;;;;;7.20;79.50;98923.81;4200479;28;20043;-71
2023/04/27 08:22:43;;;;;;;9.77;4.97;;;;;;;7.22;80.93;98927.03;4197174;28;20301;-71
2023/04/27 08:24:43;;;;;;;9.18;4.85;;;;;;;7.26;81.63;98917.75;4195831;28;20072;-71
2023/04/27 08:26:44;;;;;;;8.13;4.28;;;;;;;7.35;80.76;98925.06;4199737;28;20086;-71
2023/04/27 08:28:44;;;;;;;8.70;4.55;;;;;;;7.47;78.46;98923.13;4198506;28;20049;-71
2023/04/27 08:30:45;;;;;;;8.68;4.88;;;;;;;7.42;78.49;98930.81;4206313;28;20388;-71
2023/04/27 08:32:46;;;;;;;8.57;5.28;;;;;;;7.41;78.09;98921.75;4198801;28;20409;-71
2023/04/27 08:34:46;;;;;;;9.82;4.95;;;;;;;7.45;78.83;98921.88;4201248;28;20322;-71
2023/04/27 08:36:47;;;;;;;7.00;4.30;;;;;;;7.48;79.43;98927.47;4197639;28;20384;-71
2023/04/27 08:38:47;;;;;;;7.38;4.97;;;;;;;7.52;77.76;98924.81;4199442;28;20524;-71
2023/04/27 08:40:47;;;;;;;7.72;4.18;;;;;;;7.40;78.12;98917.38;4200975;28;20614;-71
2023/04/27 08:42:56;;;;;;;8.07;5.03;;;;;;;7.43;77.78;98921.38;4197615;28;20473;-71
2023/04/27 08:44:57;;;;;;;8.10;4.03;;;;;;;7.40;78.09;98922.91;4199777;28;20040;-71
2023/04/27 08:46:57;;;;;;;14.40;4.93;;;;;;;7.44;78.57;98918.28;4199399;28;20132;-71
2023/04/27 08:48:58;;;;;;;6.72;4.30;;;;;;;7.47;79.12;98914.84;4203922;28;20051;-71
2023/04/27 08:50:59;;;;;;;10.85;5.10;;;;;;;7.50;78.06;98921.63;4197659;28;20280;-71
2023/04/27 08:53:01;;;;;;;9.32;4.45;;;;;;;7.53;81.65;98915.41;4198865;28;20048;-71
2023/04/27 08:55:01;;;;;;;8.32;5.22;;;;;;;7.58;78.89;98921.47;4195096;28;20126;-71
2023/04/27 08:57:08;;;;;;;7.45;4.47;;;;;;;7.60;77.46;98907.34;4197502;28;20485;-71
2023/04/27 08:59:15;;;;;;;7.65;4.78;;;;;;;7.69;77.71;98905.28;4199467;28;20067;-71
2023/04/27 09:01:15;;;;;;;9.63;5.03;;;;;;;7.78;77.92;98905.97;4197720;28;20036;-71
2023/04/27 09:03:25;;;;;;;7.45;4.93;;;;;;;7.88;76.13;98893.63;4201186;28;20502;-71
2023/04/27 09:05:26;;;;;;;7.53;4.75;;;;;;;7.95;76.92;98902.13;4196573;28;20102;-71
2023/04/27 09:07:26;;;;;;;7.20;4.80;;;;;;;7.99;76.01;98900.25;4201443;28;20049;-71
2023/04/27 09:09:27;;;;;;;8.15;5.45;;;;;;;8.02;76.10;98891.25;4201324;28;20067;-71
2023/04/27 09:11:30;;;;;;;7.78;5.20;;;;;;;8.10;74.31;98892.28;4196400;28;20036;-71
2023/04/27 09:13:48;;;;;;;10.52;5.55;;;;;;;8.00;74.10;98896.34;4196794;28;20043;-70
2023/04/27 09:15:51;;;;;;;19.90;5.38;;;;;;;8.06;74.00;98889.44;4197864;28;20041;-71
2023/04/27 09:17:55;;;;;;;8.15;4.88;;;;;;;8.03;73.67;98892.09;4199988;28;20054;-71
2023/04/27 09:20:12;;;;;;;9.07;5.30;;;;;;;8.07;75.26;98891.03;4194153;28;20048;-71
2023/04/27 09:22:14;;;;;;;9.50;5.55;;;;;;;8.07;73.25;98885.50;4199906;28;20047;-71
2023/04/27 09:24:14;;;;;;;6.95;4.63;;;;;;;8.16;76.63;98879.84;4198149;28;20059;-71
2023/04/27 09:26:26;;;;;;;8.48;6.07;;;;;;;8.26;73.93;98887.59;4197297;28;20032;-71
2023/04/27 09:28:27;;;;;;;10.73;5.47;;;;;;;8.27;75.70;98885.63;4197434;28;20044;-71
2023/04/27 09:30:28;;;;;;;10.45;5.53;;;;;;;8.32;76.41;98886.19;4199352;28;20032;-71